createdAt,value
2023-03-22T00:02:07.098Z,25.10
2023-03-22T00:04:36.525Z,26.50
2023-03-22T00:07:05.473Z,26.50
2023-03-22T00:09:34.549Z,25.10
2023-03-22T00:12:05.400Z,24.60
2023-03-22T00:14:37.201Z,24.00
2023-03-22T00:17:08.888Z,25.40
2023-03-22T00:19:44.470Z,25.20
2023-03-22T00:22:16.553Z,26.20
2023-03-22T00:24:49.910Z,24.70
2023-03-22T00:27:19.523Z,25.80
2023-03-22T00:29:49.484Z,25.30
2023-03-22T00:32:19.656Z,23.00
2023-03-22T00:34:50.355Z,26.60
2023-03-22T00:37:22.915Z,25.30
2023-03-22T00:39:55.584Z,25.90
2023-03-22T00:42:26.784Z,25.40
2023-03-22T00:44:57.318Z,23.40
2023-03-22T00:47:27.198Z,26.70
2023-03-22T00:49:57.963Z,26.20
2023-03-22T00:52:27.925Z,24.00
2023-03-22T00:54:58.633Z,25.20
2023-03-22T00:57:28.587Z,25.40
2023-03-22T00:59:59.532Z,23.20
2023-03-22T01:02:30.323Z,24.70
2023-03-22T01:05:03.626Z,24.20
2023-03-22T01:07:34.437Z,24.20
2023-03-22T01:10:07.440Z,27.40
2023-03-22T01:12:38.222Z,25.40
2023-03-22T01:15:09.816Z,26.20
2023-03-22T01:17:39.920Z,25.30
2023-03-22T01:20:12.233Z,24.40
2023-03-22T01:22:42.211Z,24.90
2023-03-22T01:25:16.104Z,26.80
2023-03-22T01:27:47.004Z,24.80
2023-03-22T01:30:17.599Z,26.40
2023-03-22T01:32:52.489Z,23.70
2023-03-22T01:35:25.173Z,24.40
2023-03-22T01:37:57.023Z,23.50
2023-03-22T01:40:27.946Z,23.90
2023-03-22T01:42:59.665Z,25.40
2023-03-22T01:45:51.260Z,24.40
2023-03-22T01:48:36.204Z,24.70
2023-03-22T01:51:19.185Z,25.10
2023-03-22T01:53:54.182Z,25.10
2023-03-22T01:56:27.434Z,23.50
2023-03-22T01:58:58.742Z,24.80
2023-03-22T02:01:29.672Z,24.30
2023-03-22T02:04:34.446Z,24.20
2023-03-22T02:07:10.821Z,22.20
2023-03-22T02:09:43.580Z,24.60
2023-03-22T02:12:45.111Z,25.20
2023-03-22T02:15:27.097Z,23.70
2023-03-22T02:18:24.386Z,23.80
2023-03-22T02:21:32.971Z,24.60
2023-03-22T02:24:10.808Z,25.90
2023-03-22T02:27:07.606Z,24.60
2023-03-22T02:29:47.982Z,26.00
2023-03-22T02:32:17.456Z,25.30
2023-03-22T02:34:48.939Z,25.80
2023-03-22T02:37:20.673Z,25.60
2023-03-22T02:40:11.691Z,24.00
2023-03-22T02:42:55.467Z,23.60
2023-03-22T02:45:35.072Z,24.90
2023-03-22T02:48:17.822Z,26.10
2023-03-22T02:50:56.945Z,23.80
2023-03-22T02:53:30.121Z,24.30
2023-03-22T02:56:05.653Z,25.00
2023-03-22T02:58:46.995Z,27.10
2023-03-22T03:01:30.230Z,24.60
2023-03-22T03:04:07.536Z,23.70
2023-03-22T03:06:47.450Z,22.70
2023-03-22T03:09:22.079Z,23.50
2023-03-22T03:11:57.511Z,24.30
2023-03-22T03:14:30.779Z,25.10
2023-03-22T03:17:17.427Z,24.80
2023-03-22T03:20:05.102Z,24.30
2023-03-22T03:22:50.823Z,24.30
2023-03-22T03:25:49.426Z,24.60
2023-03-22T03:28:52.198Z,25.00
2023-03-22T03:31:27.660Z,24.80
2023-03-22T03:34:19.104Z,23.40
2023-03-22T03:36:55.395Z,24.20
2023-03-22T03:39:28.577Z,28.00
2023-03-22T03:42:00.241Z,25.90
2023-03-22T03:44:34.237Z,25.80
2023-03-22T03:47:05.359Z,24.00
2023-03-22T03:49:36.463Z,24.00
2023-03-22T03:52:10.245Z,25.50
2023-03-22T03:54:44.948Z,26.50
2023-03-22T03:57:17.953Z,25.20
2023-03-22T03:59:50.876Z,27.10
2023-03-22T04:02:21.241Z,25.00
2023-03-22T04:04:51.717Z,23.70
2023-03-22T04:07:24.663Z,23.30
2023-03-22T04:09:55.824Z,25.30
2023-03-22T04:12:29.436Z,25.80
2023-03-22T04:14:58.555Z,26.10
2023-03-22T04:17:34.424Z,24.60
2023-03-22T04:20:08.047Z,23.50
2023-03-22T04:22:41.111Z,25.30
2023-03-22T04:25:16.251Z,23.70
2023-03-22T04:27:47.458Z,23.50
2023-03-22T04:30:22.194Z,25.30
2023-03-22T04:32:52.178Z,23.90
2023-03-22T04:35:24.426Z,25.70
2023-03-22T04:37:55.110Z,23.90
2023-03-22T04:40:29.434Z,24.90
2023-03-22T04:43:01.267Z,23.10
2023-03-22T04:45:37.404Z,25.40
2023-03-22T04:50:42.014Z,21.30
2023-03-22T04:53:12.677Z,24.70
2023-03-22T04:55:44.811Z,24.00
2023-03-22T04:58:17.875Z,24.50
2023-03-22T05:00:49.528Z,22.80
2023-03-22T05:03:22.260Z,25.00
2023-03-22T05:05:55.547Z,23.40
2023-03-22T05:08:26.726Z,26.00
2023-03-22T05:10:57.113Z,24.60
2023-03-22T05:13:27.574Z,24.90
2023-03-22T05:15:59.382Z,26.00
2023-03-22T05:18:28.807Z,23.10
2023-03-22T05:20:58.525Z,25.70
2023-03-22T05:23:27.564Z,25.60
2023-03-22T05:25:58.939Z,24.60
2023-03-22T05:28:31.048Z,25.60
2023-03-22T05:31:05.734Z,24.90
2023-03-22T05:33:37.268Z,26.90
2023-03-22T05:36:08.161Z,24.20
2023-03-22T05:38:37.118Z,24.80
2023-03-22T05:41:06.758Z,27.60
2023-03-22T05:43:35.895Z,26.40
2023-03-22T05:46:13.402Z,26.10
2023-03-22T05:48:43.135Z,27.70
2023-03-22T05:51:17.917Z,25.90
2023-03-22T05:53:50.236Z,26.80
2023-03-22T05:56:22.215Z,24.20
2023-03-22T05:58:52.600Z,26.40
2023-03-22T06:01:21.611Z,26.60
2023-03-22T06:03:51.205Z,27.10
2023-03-22T06:06:20.413Z,27.10
2023-03-22T06:08:51.019Z,27.00
2023-03-22T06:11:21.277Z,25.30
2023-03-22T06:13:49.895Z,25.80
2023-03-22T06:16:19.160Z,26.80
2023-03-22T06:18:48.188Z,27.60
2023-03-22T06:21:19.019Z,26.40
2023-03-22T06:23:51.430Z,27.80
2023-03-22T06:26:26.905Z,27.80
2023-03-22T06:28:57.249Z,27.70
2023-03-22T06:31:27.786Z,27.60
2023-03-22T06:34:00.292Z,29.10
2023-03-22T06:36:33.384Z,29.00
2023-03-22T06:39:06.182Z,30.40
2023-03-22T06:44:10.659Z,27.10
2023-03-22T06:46:44.346Z,27.20
2023-03-22T06:49:16.410Z,27.30
2023-03-22T06:51:50.575Z,26.70
2023-03-22T06:54:31.084Z,28.40
2023-03-22T06:57:06.999Z,28.00
2023-03-22T06:59:45.451Z,27.60
2023-03-22T07:02:19.019Z,27.20
2023-03-22T07:04:54.288Z,26.90
2023-03-22T07:07:25.085Z,28.60
2023-03-22T07:09:59.453Z,27.50
2023-03-22T07:12:33.857Z,26.90
2023-03-22T07:15:08.988Z,28.30
2023-03-22T07:17:43.786Z,27.40
2023-03-22T07:20:20.349Z,29.00
2023-03-22T07:22:54.498Z,31.20
2023-03-22T07:25:30.670Z,29.40
2023-03-22T07:28:09.821Z,28.70
2023-03-22T07:30:44.449Z,28.60
2023-03-22T07:33:19.280Z,26.80
2023-03-22T07:35:52.902Z,28.40
2023-03-22T07:38:27.234Z,28.10
2023-03-22T07:41:00.490Z,27.10
2023-03-22T07:43:29.963Z,28.30
2023-03-22T07:46:01.200Z,27.60
2023-03-22T07:48:35.018Z,27.70
2023-03-22T07:51:11.120Z,26.70
2023-03-22T07:53:46.531Z,25.40
2023-03-22T07:56:18.805Z,26.30
2023-03-22T07:58:50.806Z,28.80
2023-03-22T08:01:26.808Z,27.60
2023-03-22T08:03:59.904Z,28.40
2023-03-22T08:06:35.727Z,28.50
2023-03-22T08:09:12.316Z,26.60
2023-03-22T08:11:49.538Z,24.80
2023-03-22T08:14:35.839Z,26.40
2023-03-22T08:17:17.726Z,26.90
2023-03-22T08:19:58.676Z,28.30
2023-03-22T08:22:32.550Z,26.90
2023-03-22T08:25:06.071Z,24.90
2023-03-22T08:27:34.729Z,28.20
2023-03-22T08:30:06.709Z,26.70
2023-03-22T08:32:42.970Z,26.30
2023-03-22T08:35:14.272Z,25.20
2023-03-22T08:37:49.852Z,26.60
2023-03-22T08:40:25.762Z,23.60
2023-03-22T08:43:02.976Z,25.10
2023-03-22T08:45:38.982Z,25.40
2023-03-22T08:48:15.464Z,25.30
2023-03-22T08:50:49.327Z,24.80
2023-03-22T08:53:23.582Z,23.90
2023-03-22T08:55:59.769Z,23.00
2023-03-22T08:58:32.638Z,22.10
2023-03-22T09:01:07.375Z,23.20
2023-03-22T09:03:42.040Z,22.40
2023-03-22T09:06:18.281Z,21.90
2023-03-22T09:08:55.796Z,22.10
2023-03-22T09:11:30.411Z,22.00
2023-03-22T09:14:07.330Z,22.80
2023-03-22T09:16:42.386Z,22.90
2023-03-22T09:19:20.288Z,22.20
2023-03-22T09:22:01.052Z,19.60
2023-03-22T09:24:36.504Z,18.40
2023-03-22T09:27:10.799Z,17.80
2023-03-22T09:29:48.314Z,16.60
2023-03-22T09:32:29.378Z,16.10
2023-03-22T09:35:03.153Z,14.30
2023-03-22T09:37:35.971Z,17.60
2023-03-22T09:40:10.574Z,16.80
2023-03-22T09:42:57.066Z,14.00
2023-03-22T09:45:40.267Z,15.00
2023-03-22T09:48:19.458Z,14.30
2023-03-22T09:51:00.064Z,13.80
2023-03-22T09:53:35.817Z,14.60
2023-03-22T09:56:27.368Z,12.80
2023-03-22T09:59:25.705Z,14.30
2023-03-22T10:02:07.115Z,14.20
2023-03-22T10:04:50.357Z,13.10
2023-03-22T10:07:37.922Z,13.50
2023-03-22T10:10:22.243Z,14.30
2023-03-22T10:12:56.024Z,13.60
2023-03-22T10:15:47.908Z,14.30
2023-03-22T10:18:24.724Z,14.10
2023-03-22T10:21:02.583Z,14.10
2023-03-22T10:23:45.348Z,12.80
2023-03-22T10:26:27.059Z,12.60
2023-03-22T10:29:15.929Z,11.20
2023-03-22T10:31:51.091Z,11.90
2023-03-22T10:34:31.728Z,11.30
2023-03-22T10:37:09.352Z,12.70
2023-03-22T10:39:52.798Z,11.20
2023-03-22T10:42:31.981Z,12.10
2023-03-22T10:45:12.355Z,12.90
2023-03-22T10:47:52.481Z,15.30
2023-03-22T10:50:34.366Z,13.90
2023-03-22T10:53:29.905Z,12.90
2023-03-22T10:56:03.134Z,13.90
2023-03-22T10:58:40.386Z,13.20
2023-03-22T11:01:27.926Z,13.60
2023-03-22T11:04:10.987Z,13.40
2023-03-22T11:06:56.089Z,14.20
2023-03-22T11:09:29.641Z,14.60
2023-03-22T11:12:04.300Z,14.60
2023-03-22T11:14:48.810Z,14.40
2023-03-22T11:17:28.045Z,14.30
2023-03-22T11:20:07.151Z,13.10
2023-03-22T11:22:48.372Z,15.60
2023-03-22T11:25:28.945Z,15.50
2023-03-22T11:28:07.556Z,16.60
2023-03-22T11:30:44.311Z,16.60
2023-03-22T11:33:24.732Z,17.20
2023-03-22T11:36:04.048Z,16.60
2023-03-22T11:38:42.076Z,15.00
2023-03-22T11:41:34.312Z,17.20
2023-03-22T11:44:15.104Z,16.10
2023-03-22T11:47:00.676Z,17.60
2023-03-22T11:49:42.282Z,18.50
2023-03-22T11:52:30.429Z,15.20
2023-03-22T11:55:07.432Z,14.20
2023-03-22T12:00:30.081Z,15.80
2023-03-22T12:03:07.202Z,15.60
2023-03-22T12:05:44.537Z,15.60
2023-03-22T12:08:22.762Z,15.60
2023-03-22T12:11:06.548Z,16.50
2023-03-22T12:14:00.922Z,16.60
2023-03-22T12:16:43.492Z,16.50
2023-03-22T12:19:19.775Z,14.30
2023-03-22T12:21:59.405Z,13.30
2023-03-22T12:24:36.806Z,12.80
2023-03-22T12:27:34.984Z,14.30
2023-03-22T12:30:14.433Z,13.00
2023-03-22T12:32:54.176Z,11.70
2023-03-22T12:35:34.569Z,12.40
2023-03-22T12:38:25.357Z,9.30
2023-03-22T12:41:00.893Z,9.20
2023-03-22T12:43:58.924Z,8.50
2023-03-22T12:46:34.492Z,9.10
2023-03-22T12:49:36.498Z,9.70
2023-03-22T12:52:29.932Z,8.70
2023-03-22T12:55:08.450Z,8.30
2023-03-22T12:57:43.102Z,9.20
2023-03-22T13:00:19.649Z,8.90
2023-03-22T13:03:03.153Z,7.40
2023-03-22T13:05:39.831Z,6.90
2023-03-22T13:08:11.411Z,8.20
2023-03-22T13:11:05.708Z,8.20
2023-03-22T13:13:51.102Z,8.90
2023-03-22T13:16:26.187Z,8.20
2023-03-22T13:19:01.262Z,9.50
2023-03-22T13:21:39.869Z,8.20
2023-03-22T13:24:23.626Z,8.60
2023-03-22T13:27:02.585Z,8.80
2023-03-22T13:29:39.331Z,7.60
2023-03-22T13:32:34.104Z,8.90
2023-03-22T13:35:07.281Z,8.00
2023-03-22T13:37:51.436Z,8.50
2023-03-22T13:40:52.704Z,7.90
2023-03-22T13:43:29.877Z,7.70
2023-03-22T13:46:24.316Z,8.20
2023-03-22T13:49:23.126Z,7.70
2023-03-22T13:52:03.121Z,8.40
2023-03-22T13:54:47.721Z,10.00
2023-03-22T13:57:44.116Z,8.40
2023-03-22T14:00:36.294Z,8.20
2023-03-22T14:03:22.742Z,9.60
2023-03-22T14:06:17.122Z,9.00
2023-03-22T14:08:55.500Z,7.80
2023-03-22T14:11:29.817Z,8.80
2023-03-22T14:14:12.419Z,8.30
2023-03-22T14:16:49.534Z,7.90
2023-03-22T14:19:27.742Z,8.50
